This is the latest recevied weather packets stored in our database for station/object KC0RPY. If no packets are shown the sender has not sent any weather packets the latest 1 day(s).
| Time | Temp. | Humidity | Pressure | Rain* | Wind** | Luminosity | Snow |
|---|---|---|---|---|---|---|---|
| 1778016358 | 8.33° C | 97% | 1012.8 hPa | 0 mm | 0.45 m/s, 120° | 198 W/m² | - |
| 1778016065 | 8.33° C | 97% | 1013.2 hPa | 0 mm | 0.89 m/s, 57° | 217 W/m² | - |
| 1778015752 | 8.33° C | 97% | 1012.8 hPa | 0 mm | 0.89 m/s, 69° | 269 W/m² | - |
| 1778015450 | 8.33° C | 97% | 1012.8 hPa | 0 mm | 0.89 m/s, 71° | 222 W/m² | - |
| 1778015146 | 8.33° C | 97% | 1012.8 hPa | 0 mm | 1.34 m/s, 37° | 207 W/m² | - |
| 1778014843 | 8.33° C | 97% | 1012.8 hPa | 0 mm | 0.45 m/s, 116° | 188 W/m² | - |
| 1778014541 | 7.78° C | 97% | 1013.2 hPa | 0 mm | 0.89 m/s, 78° | 161 W/m² | - |
| 1778014238 | 7.78° C | 97% | 1012.8 hPa | 0 mm | 0.89 m/s, 97° | 165 W/m² | - |
| 1778013936 | 8.33° C | 97% | 1012.8 hPa | 0 mm | 0.89 m/s, 98° | 151 W/m² | - |
| 1778013633 | 8.89° C | 97% | 1012.5 hPa | 0 mm | 0.89 m/s, 66° | 196 W/m² | - |
| 1778013329 | 8.33° C | 97% | 1012.8 hPa | 0 mm | 0.45 m/s, 115° | 231 W/m² | - |
| 1778013027 | 7.78° C | 97% | 1013.2 hPa | 0 mm | 0.45 m/s, 114° | 157 W/m² | - |
| 1778012722 | 7.22° C | 97% | 1012.8 hPa | 0 mm | 0.89 m/s, 99° | 163 W/m² | - |
| 1778012418 | 7.22° C | 97% | 1013.2 hPa | 0 mm | 0.89 m/s, 90° | 142 W/m² | - |
| 1778012116 | 7.78° C | 97% | 1013.2 hPa | 0 mm | 0.89 m/s, 83° | 141 W/m² | - |
| 1778011813 | 7.78° C | 97% | 1012.8 hPa | 0 mm | 1.34 m/s, 22° | 144 W/m² | - |
| 1778011511 | 7.78° C | 97% | 1012.8 hPa | 0 mm | 0 m/s | 163 W/m² | - |
| 1778011208 | 7.78° C | 97% | 1012.8 hPa | 0 mm | 0.45 m/s, 127° | 155 W/m² | - |
| 1778010904 | 7.78° C | 97% | 1012.5 hPa | 0 mm | 0 m/s | 144 W/m² | - |
| 1778010601 | 7.22° C | 97% | 1012.8 hPa | 0 mm | 0.45 m/s, 124° | 221 W/m² | - |
| 1778010299 | 7.22° C | 97% | 1013.2 hPa | 0 mm | 0.45 m/s, 123° | 179 W/m² | - |
| 1778010001 | 7.22° C | 97% | 1012.8 hPa | 0 mm | 0.45 m/s, 121° | 163 W/m² | - |
| 1778009696 | 7.22° C | 97% | 1012.8 hPa | 0 mm | 0.45 m/s, 136° | 140 W/m² | - |
| 1778009393 | 7.22° C | 97% | 1012.5 hPa | 0 mm | 0.45 m/s, 116° | 137 W/m² | - |
| 1778009092 | 7.22° C | 97% | 1012.5 hPa | 0 mm | 1.79 m/s, 129° | 161 W/m² | - |
* Rain latest hour (hover to see other rain measurements)
** Current wind speed in m/s (hover to see current wind gust speed)